sensor_id;sensor_type;location;lat;lon;timestamp;P1;durP1;ratioP1;P2;durP2;ratioP2
50769;SDS011;36740;48.698;11.472;2023-10-13T00:00:52;13.48;;;7.10;;
50769;SDS011;36740;48.698;11.472;2023-10-13T00:06:28;11.63;;;6.45;;
50769;SDS011;36740;48.698;11.472;2023-10-13T00:09:14;10.75;;;7.20;;
50769;SDS011;36740;48.698;11.472;2023-10-13T00:12:00;15.93;;;6.63;;
50769;SDS011;36740;48.698;11.472;2023-10-13T00:14:46;14.50;;;7.22;;
50769;SDS011;36740;48.698;11.472;2023-10-13T00:17:32;18.75;;;7.85;;
50769;SDS011;36740;48.698;11.472;2023-10-13T00:20:17;13.57;;;7.95;;
50769;SDS011;36740;48.698;11.472;2023-10-13T00:23:16;11.25;;;7.63;;
50769;SDS011;36740;48.698;11.472;2023-10-13T00:26:08;20.40;;;7.90;;
50769;SDS011;36740;48.698;11.472;2023-10-13T00:28:58;12.45;;;6.57;;
50769;SDS011;36740;48.698;11.472;2023-10-13T00:31:46;12.63;;;8.30;;
50769;SDS011;36740;48.698;11.472;2023-10-13T00:34:33;16.30;;;9.38;;
50769;SDS011;36740;48.698;11.472;2023-10-13T00:37:23;8.43;;;6.13;;
50769;SDS011;36740;48.698;11.472;2023-10-13T00:40:14;16.70;;;7.70;;
50769;SDS011;36740;48.698;11.472;2023-10-13T00:43:11;9.05;;;6.88;;
50769;SDS011;36740;48.698;11.472;2023-10-13T00:46:06;12.77;;;7.63;;
50769;SDS011;36740;48.698;11.472;2023-10-13T00:48:53;12.27;;;6.20;;
50769;SDS011;36740;48.698;11.472;2023-10-13T00:51:39;12.10;;;7.38;;
50769;SDS011;36740;48.698;11.472;2023-10-13T00:54:33;13.40;;;7.95;;
50769;SDS011;36740;48.698;11.472;2023-10-13T00:57:20;11.80;;;6.82;;
50769;SDS011;36740;48.698;11.472;2023-10-13T01:00:12;16.67;;;8.63;;
50769;SDS011;36740;48.698;11.472;2023-10-13T01:03:04;12.00;;;8.38;;
50769;SDS011;36740;48.698;11.472;2023-10-13T01:05:54;16.90;;;8.70;;
50769;SDS011;36740;48.698;11.472;2023-10-13T01:08:39;16.50;;;9.43;;
50769;SDS011;36740;48.698;11.472;2023-10-13T01:11:29;13.23;;;8.30;;
50769;SDS011;36740;48.698;11.472;2023-10-13T01:14:17;15.23;;;8.65;;
50769;SDS011;36740;48.698;11.472;2023-10-13T01:17:03;14.88;;;7.90;;
50769;SDS011;36740;48.698;11.472;2023-10-13T01:19:49;12.35;;;7.57;;
50769;SDS011;36740;48.698;11.472;2023-10-13T01:22:35;14.13;;;8.35;;
50769;SDS011;36740;48.698;11.472;2023-10-13T01:25:24;13.68;;;6.85;;
50769;SDS011;36740;48.698;11.472;2023-10-13T01:28:13;15.63;;;7.90;;
50769;SDS011;36740;48.698;11.472;2023-10-13T01:31:01;11.48;;;5.65;;
50769;SDS011;36740;48.698;11.472;2023-10-13T01:33:47;14.73;;;6.30;;
50769;SDS011;36740;48.698;11.472;2023-10-13T01:36:32;11.88;;;7.32;;
50769;SDS011;36740;48.698;11.472;2023-10-13T01:39:22;11.15;;;6.03;;
50769;SDS011;36740;48.698;11.472;2023-10-13T01:45:00;16.48;;;6.68;;
50769;SDS011;36740;48.698;11.472;2023-10-13T01:47:50;15.73;;;7.15;;
50769;SDS011;36740;48.698;11.472;2023-10-13T01:50:36;12.48;;;6.85;;
50769;SDS011;36740;48.698;11.472;2023-10-13T01:53:21;15.68;;;8.05;;
50769;SDS011;36740;48.698;11.472;2023-10-13T01:56:08;13.27;;;6.45;;
50769;SDS011;36740;48.698;11.472;2023-10-13T01:58:56;17.08;;;7.57;;
50769;SDS011;36740;48.698;11.472;2023-10-13T02:01:42;12.27;;;6.00;;
50769;SDS011;36740;48.698;11.472;2023-10-13T02:04:28;15.20;;;7.07;;
50769;SDS011;36740;48.698;11.472;2023-10-13T02:07:13;11.77;;;7.10;;
50769;SDS011;36740;48.698;11.472;2023-10-13T02:10:00;31.23;;;8.18;;
50769;SDS011;36740;48.698;11.472;2023-10-13T02:12:50;15.55;;;6.57;;
50769;SDS011;36740;48.698;11.472;2023-10-13T02:15:41;14.13;;;7.18;;
50769;SDS011;36740;48.698;11.472;2023-10-13T02:18:28;11.25;;;7.43;;
50769;SDS011;36740;48.698;11.472;2023-10-13T02:21:18;13.63;;;9.27;;
50769;SDS011;36740;48.698;11.472;2023-10-13T02:24:07;12.50;;;6.88;;
50769;SDS011;36740;48.698;11.472;2023-10-13T02:26:58;13.70;;;7.38;;
50769;SDS011;36740;48.698;11.472;2023-10-13T02:29:53;13.13;;;8.40;;
50769;SDS011;36740;48.698;11.472;2023-10-13T02:32:43;9.25;;;6.43;;
50769;SDS011;36740;48.698;11.472;2023-10-13T02:35:29;16.02;;;8.10;;
50769;SDS011;36740;48.698;11.472;2023-10-13T02:38:16;9.00;;;6.50;;
50769;SDS011;36740;48.698;11.472;2023-10-13T02:41:20;18.85;;;8.57;;
50769;SDS011;36740;48.698;11.472;2023-10-13T02:44:16;18.23;;;7.82;;
50769;SDS011;36740;48.698;11.472;2023-10-13T02:47:16;8.52;;;6.22;;
50769;SDS011;36740;48.698;11.472;2023-10-13T02:50:04;12.38;;;7.53;;
50769;SDS011;36740;48.698;11.472;2023-10-13T02:53:00;13.43;;;7.30;;
50769;SDS011;36740;48.698;11.472;2023-10-13T02:55:50;9.18;;;6.10;;
50769;SDS011;36740;48.698;11.472;2023-10-13T02:58:35;8.77;;;6.15;;
50769;SDS011;36740;48.698;11.472;2023-10-13T03:01:24;13.77;;;7.88;;
50769;SDS011;36740;48.698;11.472;2023-10-13T03:04:14;13.98;;;7.20;;
50769;SDS011;36740;48.698;11.472;2023-10-13T03:06:59;20.80;;;6.82;;
50769;SDS011;36740;48.698;11.472;2023-10-13T03:09:46;9.90;;;7.38;;
50769;SDS011;36740;48.698;11.472;2023-10-13T03:12:39;11.85;;;7.57;;
50769;SDS011;36740;48.698;11.472;2023-10-13T03:15:25;12.95;;;7.15;;
50769;SDS011;36740;48.698;11.472;2023-10-13T03:18:15;10.73;;;5.35;;
50769;SDS011;36740;48.698;11.472;2023-10-13T03:21:03;11.90;;;5.40;;
50769;SDS011;36740;48.698;11.472;2023-10-13T03:23:50;13.88;;;5.95;;
50769;SDS011;36740;48.698;11.472;2023-10-13T03:26:39;9.48;;;5.57;;
50769;SDS011;36740;48.698;11.472;2023-10-13T03:29:29;10.93;;;6.10;;
50769;SDS011;36740;48.698;11.472;2023-10-13T03:32:16;18.48;;;7.55;;
50769;SDS011;36740;48.698;11.472;2023-10-13T03:35:02;10.98;;;6.22;;
50769;SDS011;36740;48.698;11.472;2023-10-13T03:37:48;12.57;;;7.45;;
50769;SDS011;36740;48.698;11.472;2023-10-13T03:40:33;11.82;;;6.55;;
50769;SDS011;36740;48.698;11.472;2023-10-13T03:43:21;16.40;;;6.65;;
50769;SDS011;36740;48.698;11.472;2023-10-13T03:46:09;10.80;;;6.03;;
50769;SDS011;36740;48.698;11.472;2023-10-13T03:48:56;18.05;;;7.07;;
50769;SDS011;36740;48.698;11.472;2023-10-13T03:51:47;16.80;;;7.90;;
50769;SDS011;36740;48.698;11.472;2023-10-13T03:54:33;15.38;;;6.78;;
50769;SDS011;36740;48.698;11.472;2023-10-13T03:57:20;15.23;;;7.43;;
50769;SDS011;36740;48.698;11.472;2023-10-13T04:00:07;15.30;;;7.47;;
50769;SDS011;36740;48.698;11.472;2023-10-13T04:03:05;14.43;;;5.72;;
50769;SDS011;36740;48.698;11.472;2023-10-13T04:06:04;11.63;;;8.20;;
50769;SDS011;36740;48.698;11.472;2023-10-13T04:08:53;11.82;;;7.22;;
50769;SDS011;36740;48.698;11.472;2023-10-13T04:12:02;12.80;;;5.78;;
50769;SDS011;36740;48.698;11.472;2023-10-13T04:14:48;18.63;;;7.40;;
50769;SDS011;36740;48.698;11.472;2023-10-13T04:17:51;14.35;;;6.68;;
50769;SDS011;36740;48.698;11.472;2023-10-13T04:20:37;21.40;;;7.97;;
50769;SDS011;36740;48.698;11.472;2023-10-13T04:23:23;38.42;;;10.50;;
50769;SDS011;36740;48.698;11.472;2023-10-13T04:26:11;18.15;;;8.68;;
50769;SDS011;36740;48.698;11.472;2023-10-13T04:29:06;15.73;;;6.90;;
50769;SDS011;36740;48.698;11.472;2023-10-13T04:32:12;14.32;;;6.47;;
50769;SDS011;36740;48.698;11.472;2023-10-13T04:35:13;14.73;;;7.20;;
50769;SDS011;36740;48.698;11.472;2023-10-13T04:37:59;13.90;;;6.28;;
50769;SDS011;36740;48.698;11.472;2023-10-13T04:40:56;24.00;;;7.40;;
50769;SDS011;36740;48.698;11.472;2023-10-13T04:46:41;15.98;;;7.40;;
50769;SDS011;36740;48.698;11.472;2023-10-13T04:49:34;12.43;;;7.57;;
50769;SDS011;36740;48.698;11.472;2023-10-13T04:52:19;10.77;;;5.95;;
50769;SDS011;36740;48.698;11.472;2023-10-13T04:55:23;12.60;;;6.70;;
50769;SDS011;36740;48.698;11.472;2023-10-13T04:58:32;27.50;;;7.65;;
50769;SDS011;36740;48.698;11.472;2023-10-13T05:01:18;23.20;;;9.98;;
50769;SDS011;36740;48.698;11.472;2023-10-13T05:04:09;17.13;;;9.75;;
50769;SDS011;36740;48.698;11.472;2023-10-13T05:07:15;17.15;;;9.25;;
50769;SDS011;36740;48.698;11.472;2023-10-13T05:10:20;20.23;;;9.18;;
50769;SDS011;36740;48.698;11.472;2023-10-13T05:13:24;12.98;;;8.23;;
50769;SDS011;36740;48.698;11.472;2023-10-13T05:16:28;21.70;;;9.52;;
50769;SDS011;36740;48.698;11.472;2023-10-13T05:19:33;19.13;;;9.45;;
50769;SDS011;36740;48.698;11.472;2023-10-13T05:22:37;16.00;;;6.97;;
50769;SDS011;36740;48.698;11.472;2023-10-13T05:25:41;15.80;;;6.97;;
50769;SDS011;36740;48.698;11.472;2023-10-13T05:28:45;9.90;;;5.95;;
50769;SDS011;36740;48.698;11.472;2023-10-13T05:31:49;9.35;;;6.10;;
50769;SDS011;36740;48.698;11.472;2023-10-13T05:34:54;11.98;;;6.07;;
50769;SDS011;36740;48.698;11.472;2023-10-13T05:37:58;12.77;;;7.35;;
50769;SDS011;36740;48.698;11.472;2023-10-13T05:41:03;8.10;;;6.03;;
50769;SDS011;36740;48.698;11.472;2023-10-13T05:44:07;16.48;;;6.57;;
50769;SDS011;36740;48.698;11.472;2023-10-13T05:47:11;24.95;;;9.77;;
50769;SDS011;36740;48.698;11.472;2023-10-13T05:50:16;27.77;;;11.40;;
50769;SDS011;36740;48.698;11.472;2023-10-13T05:53:04;31.90;;;15.82;;
50769;SDS011;36740;48.698;11.472;2023-10-13T05:55:59;28.23;;;11.32;;
50769;SDS011;36740;48.698;11.472;2023-10-13T05:59:03;28.52;;;12.10;;
50769;SDS011;36740;48.698;11.472;2023-10-13T06:02:07;22.10;;;9.02;;
50769;SDS011;36740;48.698;11.472;2023-10-13T06:05:12;15.18;;;6.88;;
50769;SDS011;36740;48.698;11.472;2023-10-13T06:08:16;15.05;;;6.47;;
50769;SDS011;36740;48.698;11.472;2023-10-13T06:11:21;9.77;;;6.10;;
50769;SDS011;36740;48.698;11.472;2023-10-13T06:14:25;13.32;;;7.22;;
50769;SDS011;36740;48.698;11.472;2023-10-13T06:17:29;15.10;;;7.93;;
50769;SDS011;36740;48.698;11.472;2023-10-13T06:20:38;12.13;;;6.35;;
50769;SDS011;36740;48.698;11.472;2023-10-13T06:23:42;10.23;;;5.75;;
50769;SDS011;36740;48.698;11.472;2023-10-13T06:26:49;12.65;;;5.40;;
50769;SDS011;36740;48.698;11.472;2023-10-13T06:29:54;8.85;;;4.63;;
50769;SDS011;36740;48.698;11.472;2023-10-13T06:32:39;10.07;;;5.38;;
50769;SDS011;36740;48.698;11.472;2023-10-13T06:35:25;10.85;;;6.85;;
50769;SDS011;36740;48.698;11.472;2023-10-13T06:38:11;15.35;;;7.65;;
50769;SDS011;36740;48.698;11.472;2023-10-13T06:41:06;11.88;;;7.90;;
50769;SDS011;36740;48.698;11.472;2023-10-13T06:43:52;10.20;;;6.72;;
50769;SDS011;36740;48.698;11.472;2023-10-13T06:46:44;10.27;;;5.20;;
50769;SDS011;36740;48.698;11.472;2023-10-13T06:49:30;10.93;;;4.72;;
50769;SDS011;36740;48.698;11.472;2023-10-13T06:52:18;7.18;;;4.57;;
50769;SDS011;36740;48.698;11.472;2023-10-13T06:55:03;11.32;;;4.50;;
50769;SDS011;36740;48.698;11.472;2023-10-13T06:57:51;9.55;;;4.95;;
50769;SDS011;36740;48.698;11.472;2023-10-13T07:00:37;10.55;;;5.30;;
50769;SDS011;36740;48.698;11.472;2023-10-13T07:03:23;11.20;;;4.00;;
50769;SDS011;36740;48.698;11.472;2023-10-13T07:06:10;9.27;;;5.13;;
50769;SDS011;36740;48.698;11.472;2023-10-13T07:08:57;20.58;;;5.05;;
50769;SDS011;36740;48.698;11.472;2023-10-13T07:11:43;10.38;;;5.25;;
50769;SDS011;36740;48.698;11.472;2023-10-13T07:14:28;16.58;;;8.43;;
50769;SDS011;36740;48.698;11.472;2023-10-13T07:17:14;5.95;;;3.88;;
50769;SDS011;36740;48.698;11.472;2023-10-13T07:20:08;8.60;;;4.00;;
50769;SDS011;36740;48.698;11.472;2023-10-13T07:23:00;12.43;;;5.32;;
50769;SDS011;36740;48.698;11.472;2023-10-13T07:25:52;17.63;;;7.68;;
50769;SDS011;36740;48.698;11.472;2023-10-13T07:28:48;11.80;;;6.93;;
50769;SDS011;36740;48.698;11.472;2023-10-13T07:31:33;16.45;;;9.82;;
50769;SDS011;36740;48.698;11.472;2023-10-13T07:34:19;21.83;;;8.98;;
50769;SDS011;36740;48.698;11.472;2023-10-13T07:37:17;20.23;;;8.82;;
50769;SDS011;36740;48.698;11.472;2023-10-13T07:40:04;33.78;;;10.88;;
50769;SDS011;36740;48.698;11.472;2023-10-13T07:43:07;17.83;;;8.02;;
50769;SDS011;36740;48.698;11.472;2023-10-13T07:45:56;21.70;;;8.60;;
50769;SDS011;36740;48.698;11.472;2023-10-13T07:48:44;15.75;;;7.45;;
50769;SDS011;36740;48.698;11.472;2023-10-13T07:51:31;19.50;;;5.07;;
50769;SDS011;36740;48.698;11.472;2023-10-13T07:54:18;8.90;;;4.35;;
50769;SDS011;36740;48.698;11.472;2023-10-13T07:59:53;6.20;;;3.67;;
50769;SDS011;36740;48.698;11.472;2023-10-13T08:02:58;6.50;;;2.83;;
50769;SDS011;36740;48.698;11.472;2023-10-13T08:05:55;4.60;;;3.30;;
50769;SDS011;36740;48.698;11.472;2023-10-13T08:08:52;5.85;;;2.30;;
50769;SDS011;36740;48.698;11.472;2023-10-13T08:11:52;9.32;;;2.85;;
50769;SDS011;36740;48.698;11.472;2023-10-13T08:14:39;6.30;;;2.50;;
50769;SDS011;36740;48.698;11.472;2023-10-13T08:17:27;8.20;;;2.58;;
50769;SDS011;36740;48.698;11.472;2023-10-13T08:20:16;7.10;;;3.00;;
50769;SDS011;36740;48.698;11.472;2023-10-13T08:23:02;5.15;;;3.75;;
50769;SDS011;36740;48.698;11.472;2023-10-13T08:25:58;6.85;;;2.72;;
50769;SDS011;36740;48.698;11.472;2023-10-13T08:29:15;8.52;;;3.70;;
50769;SDS011;36740;48.698;11.472;2023-10-13T08:32:09;6.30;;;2.55;;
50769;SDS011;36740;48.698;11.472;2023-10-13T08:35:10;5.53;;;3.22;;
50769;SDS011;36740;48.698;11.472;2023-10-13T08:38:08;7.18;;;2.92;;
50769;SDS011;36740;48.698;11.472;2023-10-13T08:41:00;4.63;;;3.00;;
50769;SDS011;36740;48.698;11.472;2023-10-13T08:44:04;3.53;;;2.03;;
50769;SDS011;36740;48.698;11.472;2023-10-13T08:46:50;5.22;;;2.25;;
50769;SDS011;36740;48.698;11.472;2023-10-13T08:49:49;9.00;;;2.90;;
50769;SDS011;36740;48.698;11.472;2023-10-13T08:52:42;2.47;;;1.42;;
50769;SDS011;36740;48.698;11.472;2023-10-13T08:55:34;3.78;;;2.05;;
50769;SDS011;36740;48.698;11.472;2023-10-13T08:58:43;4.40;;;2.15;;
50769;SDS011;36740;48.698;11.472;2023-10-13T09:01:39;6.22;;;3.13;;
50769;SDS011;36740;48.698;11.472;2023-10-13T09:04:31;6.45;;;2.33;;
50769;SDS011;36740;48.698;11.472;2023-10-13T09:07:17;9.75;;;2.55;;
50769;SDS011;36740;48.698;11.472;2023-10-13T09:10:07;5.47;;;2.63;;
50769;SDS011;36740;48.698;11.472;2023-10-13T09:13:18;12.60;;;2.15;;
50769;SDS011;36740;48.698;11.472;2023-10-13T09:16:10;7.53;;;2.05;;
50769;SDS011;36740;48.698;11.472;2023-10-13T09:19:01;15.13;;;2.67;;
50769;SDS011;36740;48.698;11.472;2023-10-13T09:24:40;3.58;;;1.83;;
50769;SDS011;36740;48.698;11.472;2023-10-13T09:27:29;5.65;;;3.05;;
50769;SDS011;36740;48.698;11.472;2023-10-13T09:30:15;4.47;;;2.90;;
50769;SDS011;36740;48.698;11.472;2023-10-13T09:33:04;4.38;;;2.85;;
50769;SDS011;36740;48.698;11.472;2023-10-13T09:35:50;2.53;;;2.20;;
50769;SDS011;36740;48.698;11.472;2023-10-13T09:38:36;7.30;;;1.85;;
50769;SDS011;36740;48.698;11.472;2023-10-13T09:41:25;5.88;;;2.00;;
50769;SDS011;36740;48.698;11.472;2023-10-13T09:44:17;9.20;;;2.15;;
50769;SDS011;36740;48.698;11.472;2023-10-13T09:47:03;5.53;;;2.25;;
50769;SDS011;36740;48.698;11.472;2023-10-13T09:50:09;10.65;;;3.20;;
50769;SDS011;36740;48.698;11.472;2023-10-13T09:53:09;8.60;;;2.40;;
50769;SDS011;36740;48.698;11.472;2023-10-13T09:58:47;2.05;;;1.80;;
50769;SDS011;36740;48.698;11.472;2023-10-13T10:01:43;6.68;;;1.98;;
50769;SDS011;36740;48.698;11.472;2023-10-13T10:04:50;10.88;;;3.00;;
50769;SDS011;36740;48.698;11.472;2023-10-13T10:07:36;5.28;;;2.67;;
50769;SDS011;36740;48.698;11.472;2023-10-13T10:10:22;3.38;;;1.70;;
50769;SDS011;36740;48.698;11.472;2023-10-13T10:13:13;9.38;;;1.40;;
50769;SDS011;36740;48.698;11.472;2023-10-13T10:16:05;10.98;;;2.92;;
50769;SDS011;36740;48.698;11.472;2023-10-13T10:19:00;7.28;;;1.98;;
50769;SDS011;36740;48.698;11.472;2023-10-13T10:21:47;3.85;;;2.22;;
50769;SDS011;36740;48.698;11.472;2023-10-13T10:24:33;7.25;;;2.67;;
50769;SDS011;36740;48.698;11.472;2023-10-13T10:27:25;19.42;;;4.05;;
50769;SDS011;36740;48.698;11.472;2023-10-13T10:30:11;6.32;;;2.50;;
50769;SDS011;36740;48.698;11.472;2023-10-13T10:32:59;11.15;;;2.08;;
50769;SDS011;36740;48.698;11.472;2023-10-13T10:35:45;2.33;;;1.50;;
50769;SDS011;36740;48.698;11.472;2023-10-13T10:38:31;4.35;;;2.05;;
50769;SDS011;36740;48.698;11.472;2023-10-13T10:41:27;6.95;;;2.97;;
50769;SDS011;36740;48.698;11.472;2023-10-13T10:44:30;6.18;;;2.60;;
50769;SDS011;36740;48.698;11.472;2023-10-13T10:47:28;6.50;;;2.38;;
50769;SDS011;36740;48.698;11.472;2023-10-13T10:50:24;3.97;;;1.73;;
50769;SDS011;36740;48.698;11.472;2023-10-13T10:53:17;5.80;;;2.75;;
50769;SDS011;36740;48.698;11.472;2023-10-13T10:56:06;7.15;;;3.13;;
50769;SDS011;36740;48.698;11.472;2023-10-13T10:59:06;10.20;;;3.10;;
50769;SDS011;36740;48.698;11.472;2023-10-13T11:02:05;19.00;;;3.22;;
50769;SDS011;36740;48.698;11.472;2023-10-13T11:04:52;7.43;;;2.03;;
50769;SDS011;36740;48.698;11.472;2023-10-13T11:07:44;4.80;;;2.67;;
50769;SDS011;36740;48.698;11.472;2023-10-13T11:10:35;12.15;;;4.13;;
50769;SDS011;36740;48.698;11.472;2023-10-13T11:13:24;7.20;;;3.30;;
50769;SDS011;36740;48.698;11.472;2023-10-13T11:16:22;11.32;;;1.65;;
50769;SDS011;36740;48.698;11.472;2023-10-13T11:19:14;6.85;;;1.92;;
50769;SDS011;36740;48.698;11.472;2023-10-13T11:22:22;1.88;;;1.13;;
50769;SDS011;36740;48.698;11.472;2023-10-13T11:25:29;5.03;;;2.35;;
50769;SDS011;36740;48.698;11.472;2023-10-13T11:35:35;7.43;;;2.00;;
50769;SDS011;36740;48.698;11.472;2023-10-13T11:38:41;6.35;;;3.13;;
50769;SDS011;36740;48.698;11.472;2023-10-13T11:45:06;7.53;;;2.47;;
50769;SDS011;36740;48.698;11.472;2023-10-13T11:48:10;5.38;;;1.48;;
50769;SDS011;36740;48.698;11.472;2023-10-13T11:51:10;6.43;;;2.25;;
50769;SDS011;36740;48.698;11.472;2023-10-13T11:54:28;4.00;;;1.23;;
50769;SDS011;36740;48.698;11.472;2023-10-13T11:57:16;5.57;;;1.58;;
50769;SDS011;36740;48.698;11.472;2023-10-13T12:00:05;10.77;;;2.08;;
50769;SDS011;36740;48.698;11.472;2023-10-13T12:03:22;7.78;;;3.35;;
50769;SDS011;36740;48.698;11.472;2023-10-13T12:06:29;6.30;;;2.50;;
50769;SDS011;36740;48.698;11.472;2023-10-13T12:09:41;4.15;;;2.30;;
50769;SDS011;36740;48.698;11.472;2023-10-13T12:12:37;3.08;;;1.27;;
50769;SDS011;36740;48.698;11.472;2023-10-13T12:15:27;14.93;;;2.40;;
50769;SDS011;36740;48.698;11.472;2023-10-13T12:21:39;6.07;;;2.00;;
50769;SDS011;36740;48.698;11.472;2023-10-13T12:24:27;7.03;;;1.83;;
50769;SDS011;36740;48.698;11.472;2023-10-13T12:27:22;6.72;;;2.30;;
50769;SDS011;36740;48.698;11.472;2023-10-13T12:30:33;4.30;;;2.60;;
50769;SDS011;36740;48.698;11.472;2023-10-13T12:33:34;5.95;;;2.83;;
50769;SDS011;36740;48.698;11.472;2023-10-13T12:36:33;4.90;;;2.50;;
50769;SDS011;36740;48.698;11.472;2023-10-13T12:39:59;3.75;;;2.20;;
50769;SDS011;36740;48.698;11.472;2023-10-13T12:46:36;9.13;;;2.20;;
50769;SDS011;36740;48.698;11.472;2023-10-13T12:49:40;7.82;;;2.20;;
50769;SDS011;36740;48.698;11.472;2023-10-13T12:52:40;4.07;;;1.85;;
50769;SDS011;36740;48.698;11.472;2023-10-13T12:55:30;5.05;;;2.53;;
50769;SDS011;36740;48.698;11.472;2023-10-13T12:58:36;3.15;;;1.58;;
50769;SDS011;36740;48.698;11.472;2023-10-13T13:04:34;10.27;;;2.50;;
50769;SDS011;36740;48.698;11.472;2023-10-13T13:07:48;5.80;;;2.67;;
50769;SDS011;36740;48.698;11.472;2023-10-13T13:11:02;2.83;;;1.55;;
50769;SDS011;36740;48.698;11.472;2023-10-13T13:14:01;6.53;;;3.20;;
50769;SDS011;36740;48.698;11.472;2023-10-13T13:26:24;4.45;;;1.75;;
50769;SDS011;36740;48.698;11.472;2023-10-13T13:29:06;18.77;;;2.75;;
50769;SDS011;36740;48.698;11.472;2023-10-13T13:31:44;11.82;;;1.90;;
50769;SDS011;36740;48.698;11.472;2023-10-13T13:34:18;6.00;;;1.52;;
50769;SDS011;36740;48.698;11.472;2023-10-13T13:36:46;10.93;;;3.42;;
50769;SDS011;36740;48.698;11.472;2023-10-13T13:45:16;5.70;;;2.20;;
50769;SDS011;36740;48.698;11.472;2023-10-13T13:47:52;4.88;;;2.13;;
50769;SDS011;36740;48.698;11.472;2023-10-13T13:50:58;6.43;;;2.20;;
50769;SDS011;36740;48.698;11.472;2023-10-13T13:56:37;5.55;;;1.30;;
50769;SDS011;36740;48.698;11.472;2023-10-13T14:05:29;3.75;;;0.85;;
50769;SDS011;36740;48.698;11.472;2023-10-13T14:08:29;3.55;;;1.65;;
50769;SDS011;36740;48.698;11.472;2023-10-13T14:11:04;7.65;;;2.08;;
50769;SDS011;36740;48.698;11.472;2023-10-13T14:13:39;4.22;;;1.88;;
50769;SDS011;36740;48.698;11.472;2023-10-13T14:16:21;5.60;;;1.65;;
50769;SDS011;36740;48.698;11.472;2023-10-13T14:19:03;5.63;;;2.75;;
50769;SDS011;36740;48.698;11.472;2023-10-13T14:24:48;5.30;;;1.88;;
50769;SDS011;36740;48.698;11.472;2023-10-13T14:27:25;6.30;;;1.98;;
50769;SDS011;36740;48.698;11.472;2023-10-13T14:29:56;2.88;;;2.35;;
50769;SDS011;36740;48.698;11.472;2023-10-13T14:32:54;4.90;;;1.17;;
50769;SDS011;36740;48.698;11.472;2023-10-13T14:35:26;10.85;;;2.67;;
50769;SDS011;36740;48.698;11.472;2023-10-13T14:40:44;4.93;;;1.73;;
50769;SDS011;36740;48.698;11.472;2023-10-13T14:46:37;3.28;;;1.25;;
50769;SDS011;36740;48.698;11.472;2023-10-13T14:49:22;4.65;;;1.75;;
50769;SDS011;36740;48.698;11.472;2023-10-13T14:51:51;3.65;;;2.13;;
50769;SDS011;36740;48.698;11.472;2023-10-13T14:54:16;10.88;;;5.05;;
50769;SDS011;36740;48.698;11.472;2023-10-13T14:56:47;19.75;;;3.50;;
50769;SDS011;36740;48.698;11.472;2023-10-13T14:59:13;4.78;;;1.38;;
50769;SDS011;36740;48.698;11.472;2023-10-13T15:02:13;3.22;;;1.65;;
50769;SDS011;36740;48.698;11.472;2023-10-13T15:04:38;5.60;;;1.83;;
50769;SDS011;36740;48.698;11.472;2023-10-13T15:07:04;6.65;;;2.15;;
50769;SDS011;36740;48.698;11.472;2023-10-13T15:09:35;5.82;;;1.67;;
50769;SDS011;36740;48.698;11.472;2023-10-13T15:12:10;7.20;;;2.17;;
50769;SDS011;36740;48.698;11.472;2023-10-13T15:14:41;8.52;;;2.88;;
50769;SDS011;36740;48.698;11.472;2023-10-13T15:17:16;3.72;;;2.15;;
50769;SDS011;36740;48.698;11.472;2023-10-13T15:19:41;3.97;;;1.75;;
50769;SDS011;36740;48.698;11.472;2023-10-13T15:22:08;3.25;;;1.58;;
50769;SDS011;36740;48.698;11.472;2023-10-13T15:24:46;7.75;;;1.80;;
50769;SDS011;36740;48.698;11.472;2023-10-13T15:27:27;6.47;;;2.73;;
50769;SDS011;36740;48.698;11.472;2023-10-13T15:29:54;7.32;;;1.63;;
50769;SDS011;36740;48.698;11.472;2023-10-13T15:32:19;5.60;;;1.95;;
50769;SDS011;36740;48.698;11.472;2023-10-13T15:35:03;10.18;;;2.78;;
50769;SDS011;36740;48.698;11.472;2023-10-13T15:37:29;9.82;;;2.15;;
50769;SDS011;36740;48.698;11.472;2023-10-13T15:39:54;7.47;;;2.83;;
50769;SDS011;36740;48.698;11.472;2023-10-13T15:42:22;15.27;;;2.88;;
50769;SDS011;36740;48.698;11.472;2023-10-13T15:44:48;8.10;;;2.65;;
50769;SDS011;36740;48.698;11.472;2023-10-13T15:47:18;6.22;;;2.03;;
50769;SDS011;36740;48.698;11.472;2023-10-13T15:49:43;6.77;;;2.23;;
50769;SDS011;36740;48.698;11.472;2023-10-13T15:52:08;4.72;;;1.95;;
50769;SDS011;36740;48.698;11.472;2023-10-13T15:54:34;5.07;;;2.10;;
50769;SDS011;36740;48.698;11.472;2023-10-13T15:57:03;9.25;;;1.98;;
50769;SDS011;36740;48.698;11.472;2023-10-13T15:59:31;9.80;;;2.72;;
50769;SDS011;36740;48.698;11.472;2023-10-13T16:01:59;2.75;;;1.45;;
50769;SDS011;36740;48.698;11.472;2023-10-13T16:04:24;13.57;;;2.43;;
50769;SDS011;36740;48.698;11.472;2023-10-13T16:06:49;6.60;;;2.70;;
50769;SDS011;36740;48.698;11.472;2023-10-13T16:09:17;6.53;;;3.10;;
50769;SDS011;36740;48.698;11.472;2023-10-13T16:11:49;6.97;;;3.30;;
50769;SDS011;36740;48.698;11.472;2023-10-13T16:14:14;3.40;;;1.80;;
50769;SDS011;36740;48.698;11.472;2023-10-13T16:16:46;7.53;;;1.73;;
50769;SDS011;36740;48.698;11.472;2023-10-13T16:19:15;5.65;;;2.30;;
50769;SDS011;36740;48.698;11.472;2023-10-13T16:21:46;6.70;;;2.42;;
50769;SDS011;36740;48.698;11.472;2023-10-13T16:24:12;9.25;;;3.45;;
50769;SDS011;36740;48.698;11.472;2023-10-13T16:26:40;4.93;;;2.22;;
50769;SDS011;36740;48.698;11.472;2023-10-13T16:29:06;10.07;;;2.88;;
50769;SDS011;36740;48.698;11.472;2023-10-13T16:31:32;11.20;;;2.92;;
50769;SDS011;36740;48.698;11.472;2023-10-13T16:33:57;9.38;;;3.30;;
50769;SDS011;36740;48.698;11.472;2023-10-13T16:36:27;5.90;;;3.33;;
50769;SDS011;36740;48.698;11.472;2023-10-13T16:38:52;4.25;;;1.95;;
50769;SDS011;36740;48.698;11.472;2023-10-13T16:43:49;4.55;;;2.63;;
50769;SDS011;36740;48.698;11.472;2023-10-13T16:46:14;4.00;;;1.98;;
50769;SDS011;36740;48.698;11.472;2023-10-13T16:48:43;11.65;;;2.40;;
50769;SDS011;36740;48.698;11.472;2023-10-13T16:51:13;3.65;;;1.80;;
50769;SDS011;36740;48.698;11.472;2023-10-13T16:53:39;3.38;;;2.03;;
50769;SDS011;36740;48.698;11.472;2023-10-13T16:56:05;22.92;;;3.25;;
50769;SDS011;36740;48.698;11.472;2023-10-13T16:58:32;7.28;;;2.63;;
50769;SDS011;36740;48.698;11.472;2023-10-13T17:00:58;10.48;;;2.38;;
50769;SDS011;36740;48.698;11.472;2023-10-13T17:03:28;22.40;;;3.45;;
50769;SDS011;36740;48.698;11.472;2023-10-13T17:05:57;6.63;;;2.67;;
50769;SDS011;36740;48.698;11.472;2023-10-13T17:08:26;6.67;;;2.43;;
50769;SDS011;36740;48.698;11.472;2023-10-13T17:10:54;6.18;;;2.53;;
50769;SDS011;36740;48.698;11.472;2023-10-13T17:13:19;8.13;;;2.63;;
50769;SDS011;36740;48.698;11.472;2023-10-13T17:15:44;8.80;;;2.25;;
50769;SDS011;36740;48.698;11.472;2023-10-13T17:18:13;5.97;;;4.22;;
50769;SDS011;36740;48.698;11.472;2023-10-13T17:20:41;9.13;;;3.10;;
50769;SDS011;36740;48.698;11.472;2023-10-13T17:23:07;8.00;;;2.83;;
50769;SDS011;36740;48.698;11.472;2023-10-13T17:25:33;4.47;;;2.22;;
50769;SDS011;36740;48.698;11.472;2023-10-13T17:28:01;4.15;;;2.58;;
50769;SDS011;36740;48.698;11.472;2023-10-13T17:30:39;12.75;;;2.65;;
50769;SDS011;36740;48.698;11.472;2023-10-13T17:33:04;7.55;;;2.53;;
50769;SDS011;36740;48.698;11.472;2023-10-13T17:35:30;11.70;;;3.30;;
50769;SDS011;36740;48.698;11.472;2023-10-13T17:37:56;5.53;;;2.67;;
50769;SDS011;36740;48.698;11.472;2023-10-13T17:40:21;8.73;;;3.65;;
50769;SDS011;36740;48.698;11.472;2023-10-13T17:42:50;7.38;;;3.92;;